sensor_id;sensor_type;location;lat;lon;timestamp;P1;durP1;ratioP1;P2;durP2;ratioP2
9328;SDS011;4703;48.748;19.142;2023-12-04T00:01:19;16.10;;;9.57;;
9328;SDS011;4703;48.748;19.142;2023-12-04T00:03:46;18.23;;;10.87;;
9328;SDS011;4703;48.748;19.142;2023-12-04T00:06:13;18.57;;;9.60;;
9328;SDS011;4703;48.748;19.142;2023-12-04T00:08:41;18.47;;;9.20;;
9328;SDS011;4703;48.748;19.142;2023-12-04T00:11:08;21.10;;;11.10;;
9328;SDS011;4703;48.748;19.142;2023-12-04T00:13:35;18.80;;;10.20;;
9328;SDS011;4703;48.748;19.142;2023-12-04T00:16:03;16.57;;;8.77;;
9328;SDS011;4703;48.748;19.142;2023-12-04T00:18:32;15.53;;;10.40;;
9328;SDS011;4703;48.748;19.142;2023-12-04T00:21:00;18.43;;;11.07;;
9328;SDS011;4703;48.748;19.142;2023-12-04T00:23:27;13.50;;;10.50;;
9328;SDS011;4703;48.748;19.142;2023-12-04T00:25:55;19.63;;;10.20;;
9328;SDS011;4703;48.748;19.142;2023-12-04T00:28:22;19.20;;;12.23;;
9328;SDS011;4703;48.748;19.142;2023-12-04T00:30:50;18.70;;;11.40;;
9328;SDS011;4703;48.748;19.142;2023-12-04T00:33:17;33.47;;;11.37;;
9328;SDS011;4703;48.748;19.142;2023-12-04T00:35:45;18.83;;;9.77;;
9328;SDS011;4703;48.748;19.142;2023-12-04T00:38:12;19.93;;;11.27;;
9328;SDS011;4703;48.748;19.142;2023-12-04T00:40:38;17.43;;;9.90;;
9328;SDS011;4703;48.748;19.142;2023-12-04T00:43:06;17.23;;;9.20;;
9328;SDS011;4703;48.748;19.142;2023-12-04T00:45:33;14.40;;;9.27;;
9328;SDS011;4703;48.748;19.142;2023-12-04T00:48:02;14.77;;;9.03;;
9328;SDS011;4703;48.748;19.142;2023-12-04T00:50:29;18.53;;;10.70;;
9328;SDS011;4703;48.748;19.142;2023-12-04T00:52:56;13.93;;;8.73;;
9328;SDS011;4703;48.748;19.142;2023-12-04T00:55:23;15.40;;;8.70;;
9328;SDS011;4703;48.748;19.142;2023-12-04T00:57:50;17.30;;;9.63;;
9328;SDS011;4703;48.748;19.142;2023-12-04T01:00:17;13.57;;;9.20;;
9328;SDS011;4703;48.748;19.142;2023-12-04T01:02:44;20.10;;;9.10;;
9328;SDS011;4703;48.748;19.142;2023-12-04T01:05:11;18.80;;;9.20;;
9328;SDS011;4703;48.748;19.142;2023-12-04T01:07:38;15.53;;;10.33;;
9328;SDS011;4703;48.748;19.142;2023-12-04T01:10:05;21.03;;;11.40;;
9328;SDS011;4703;48.748;19.142;2023-12-04T01:12:34;17.53;;;10.43;;
9328;SDS011;4703;48.748;19.142;2023-12-04T01:15:01;16.57;;;11.10;;
9328;SDS011;4703;48.748;19.142;2023-12-04T01:17:29;19.17;;;11.03;;
9328;SDS011;4703;48.748;19.142;2023-12-04T01:19:56;15.17;;;9.83;;
9328;SDS011;4703;48.748;19.142;2023-12-04T01:22:23;19.03;;;10.37;;
9328;SDS011;4703;48.748;19.142;2023-12-04T01:24:50;17.13;;;9.77;;
9328;SDS011;4703;48.748;19.142;2023-12-04T01:27:18;16.40;;;11.10;;
9328;SDS011;4703;48.748;19.142;2023-12-04T01:29:45;16.13;;;9.30;;
9328;SDS011;4703;48.748;19.142;2023-12-04T01:32:12;15.40;;;9.87;;
9328;SDS011;4703;48.748;19.142;2023-12-04T01:34:39;15.10;;;8.20;;
9328;SDS011;4703;48.748;19.142;2023-12-04T01:37:06;14.30;;;10.00;;
9328;SDS011;4703;48.748;19.142;2023-12-04T01:39:33;16.90;;;9.87;;
9328;SDS011;4703;48.748;19.142;2023-12-04T01:42:00;15.30;;;10.10;;
9328;SDS011;4703;48.748;19.142;2023-12-04T01:44:27;17.10;;;9.43;;
9328;SDS011;4703;48.748;19.142;2023-12-04T01:46:54;17.93;;;10.90;;
9328;SDS011;4703;48.748;19.142;2023-12-04T01:49:22;13.20;;;9.90;;
9328;SDS011;4703;48.748;19.142;2023-12-04T01:51:50;15.13;;;10.60;;
9328;SDS011;4703;48.748;19.142;2023-12-04T01:54:17;14.03;;;9.00;;
9328;SDS011;4703;48.748;19.142;2023-12-04T01:56:46;23.07;;;9.97;;
9328;SDS011;4703;48.748;19.142;2023-12-04T01:59:13;16.53;;;9.97;;
9328;SDS011;4703;48.748;19.142;2023-12-04T02:01:40;11.10;;;9.07;;
9328;SDS011;4703;48.748;19.142;2023-12-04T02:04:07;18.70;;;10.97;;
9328;SDS011;4703;48.748;19.142;2023-12-04T02:06:36;13.80;;;9.37;;
9328;SDS011;4703;48.748;19.142;2023-12-04T02:09:03;15.40;;;9.20;;
9328;SDS011;4703;48.748;19.142;2023-12-04T02:11:33;17.97;;;10.50;;
9328;SDS011;4703;48.748;19.142;2023-12-04T02:14:00;14.70;;;9.57;;
9328;SDS011;4703;48.748;19.142;2023-12-04T02:16:27;12.40;;;8.73;;
9328;SDS011;4703;48.748;19.142;2023-12-04T02:18:56;16.80;;;11.37;;
9328;SDS011;4703;48.748;19.142;2023-12-04T02:21:23;17.27;;;10.77;;
9328;SDS011;4703;48.748;19.142;2023-12-04T02:23:51;14.40;;;9.63;;
9328;SDS011;4703;48.748;19.142;2023-12-04T02:26:22;13.77;;;9.67;;
9328;SDS011;4703;48.748;19.142;2023-12-04T02:28:58;14.40;;;9.27;;
9328;SDS011;4703;48.748;19.142;2023-12-04T02:31:27;12.23;;;7.70;;
9328;SDS011;4703;48.748;19.142;2023-12-04T02:33:57;15.37;;;8.77;;
9328;SDS011;4703;48.748;19.142;2023-12-04T02:36:27;14.73;;;9.57;;
9328;SDS011;4703;48.748;19.142;2023-12-04T02:38:55;16.50;;;10.63;;
9328;SDS011;4703;48.748;19.142;2023-12-04T02:41:23;16.10;;;9.37;;
9328;SDS011;4703;48.748;19.142;2023-12-04T02:43:50;12.97;;;9.37;;
9328;SDS011;4703;48.748;19.142;2023-12-04T02:46:17;11.10;;;8.20;;
9328;SDS011;4703;48.748;19.142;2023-12-04T02:48:44;13.10;;;8.83;;
9328;SDS011;4703;48.748;19.142;2023-12-04T02:51:11;16.50;;;9.77;;
9328;SDS011;4703;48.748;19.142;2023-12-04T02:53:39;16.10;;;9.23;;
9328;SDS011;4703;48.748;19.142;2023-12-04T02:56:06;13.90;;;10.63;;
9328;SDS011;4703;48.748;19.142;2023-12-04T02:58:33;10.70;;;8.30;;
9328;SDS011;4703;48.748;19.142;2023-12-04T03:01:00;17.63;;;10.13;;
9328;SDS011;4703;48.748;19.142;2023-12-04T03:03:28;18.93;;;11.00;;
9328;SDS011;4703;48.748;19.142;2023-12-04T03:05:55;15.53;;;9.07;;
9328;SDS011;4703;48.748;19.142;2023-12-04T03:08:22;12.77;;;8.40;;
9328;SDS011;4703;48.748;19.142;2023-12-04T03:10:49;16.43;;;9.33;;
9328;SDS011;4703;48.748;19.142;2023-12-04T03:13:17;20.20;;;10.77;;
9328;SDS011;4703;48.748;19.142;2023-12-04T03:15:44;19.70;;;11.23;;
9328;SDS011;4703;48.748;19.142;2023-12-04T03:18:11;16.17;;;10.70;;
9328;SDS011;4703;48.748;19.142;2023-12-04T03:20:38;16.60;;;9.23;;
9328;SDS011;4703;48.748;19.142;2023-12-04T03:23:06;17.00;;;9.47;;
9328;SDS011;4703;48.748;19.142;2023-12-04T03:25:33;15.10;;;9.07;;
9328;SDS011;4703;48.748;19.142;2023-12-04T03:28:00;13.40;;;10.37;;
9328;SDS011;4703;48.748;19.142;2023-12-04T03:30:27;13.90;;;9.10;;
9328;SDS011;4703;48.748;19.142;2023-12-04T03:32:54;14.83;;;8.20;;
9328;SDS011;4703;48.748;19.142;2023-12-04T03:35:22;14.57;;;7.03;;
9328;SDS011;4703;48.748;19.142;2023-12-04T03:37:49;14.60;;;8.67;;
9328;SDS011;4703;48.748;19.142;2023-12-04T03:40:17;15.70;;;7.83;;
9328;SDS011;4703;48.748;19.142;2023-12-04T03:42:44;14.93;;;8.47;;
9328;SDS011;4703;48.748;19.142;2023-12-04T03:45:11;16.33;;;8.10;;
9328;SDS011;4703;48.748;19.142;2023-12-04T03:47:38;13.90;;;9.07;;
9328;SDS011;4703;48.748;19.142;2023-12-04T03:50:06;16.00;;;8.33;;
9328;SDS011;4703;48.748;19.142;2023-12-04T03:52:33;16.63;;;8.77;;
9328;SDS011;4703;48.748;19.142;2023-12-04T03:55:00;14.70;;;8.40;;
9328;SDS011;4703;48.748;19.142;2023-12-04T03:57:27;13.57;;;8.67;;
9328;SDS011;4703;48.748;19.142;2023-12-04T03:59:55;19.00;;;8.77;;
9328;SDS011;4703;48.748;19.142;2023-12-04T04:02:22;12.67;;;7.10;;
9328;SDS011;4703;48.748;19.142;2023-12-04T04:04:50;13.07;;;8.77;;
9328;SDS011;4703;48.748;19.142;2023-12-04T04:07:17;11.43;;;7.77;;
9328;SDS011;4703;48.748;19.142;2023-12-04T04:09:46;11.77;;;8.93;;
9328;SDS011;4703;48.748;19.142;2023-12-04T04:12:13;14.17;;;8.80;;
9328;SDS011;4703;48.748;19.142;2023-12-04T04:14:40;10.43;;;7.20;;
9328;SDS011;4703;48.748;19.142;2023-12-04T04:17:07;14.87;;;8.10;;
9328;SDS011;4703;48.748;19.142;2023-12-04T04:19:34;12.17;;;8.80;;
9328;SDS011;4703;48.748;19.142;2023-12-04T04:22:02;13.80;;;7.67;;
9328;SDS011;4703;48.748;19.142;2023-12-04T04:24:29;16.10;;;8.13;;
9328;SDS011;4703;48.748;19.142;2023-12-04T04:26:57;17.60;;;7.90;;
9328;SDS011;4703;48.748;19.142;2023-12-04T04:29:24;12.63;;;7.67;;
9328;SDS011;4703;48.748;19.142;2023-12-04T04:31:51;10.80;;;6.80;;
9328;SDS011;4703;48.748;19.142;2023-12-04T04:34:20;10.27;;;7.70;;
9328;SDS011;4703;48.748;19.142;2023-12-04T04:36:48;12.37;;;7.47;;
9328;SDS011;4703;48.748;19.142;2023-12-04T04:39:15;14.80;;;6.27;;
9328;SDS011;4703;48.748;19.142;2023-12-04T04:41:42;11.67;;;6.73;;
9328;SDS011;4703;48.748;19.142;2023-12-04T04:44:10;10.00;;;7.23;;
9328;SDS011;4703;48.748;19.142;2023-12-04T04:46:37;12.57;;;8.80;;
9328;SDS011;4703;48.748;19.142;2023-12-04T04:49:04;13.37;;;8.53;;
9328;SDS011;4703;48.748;19.142;2023-12-04T04:51:34;13.10;;;8.40;;
9328;SDS011;4703;48.748;19.142;2023-12-04T04:54:02;16.03;;;8.90;;
9328;SDS011;4703;48.748;19.142;2023-12-04T04:56:29;10.80;;;7.20;;
9328;SDS011;4703;48.748;19.142;2023-12-04T04:58:56;15.90;;;7.67;;
9328;SDS011;4703;48.748;19.142;2023-12-04T05:01:24;10.03;;;6.70;;
9328;SDS011;4703;48.748;19.142;2023-12-04T05:03:51;11.93;;;6.37;;
9328;SDS011;4703;48.748;19.142;2023-12-04T05:06:18;16.43;;;6.90;;
9328;SDS011;4703;48.748;19.142;2023-12-04T05:08:45;16.17;;;8.00;;
9328;SDS011;4703;48.748;19.142;2023-12-04T05:11:16;16.40;;;8.40;;
9328;SDS011;4703;48.748;19.142;2023-12-04T05:13:46;10.50;;;6.90;;
9328;SDS011;4703;48.748;19.142;2023-12-04T05:16:13;14.97;;;8.00;;
9328;SDS011;4703;48.748;19.142;2023-12-04T05:18:41;15.73;;;7.63;;
9328;SDS011;4703;48.748;19.142;2023-12-04T05:21:09;12.80;;;8.13;;
9328;SDS011;4703;48.748;19.142;2023-12-04T05:23:36;16.97;;;9.83;;
9328;SDS011;4703;48.748;19.142;2023-12-04T05:26:05;13.63;;;7.63;;
9328;SDS011;4703;48.748;19.142;2023-12-04T05:28:33;11.47;;;7.37;;
9328;SDS011;4703;48.748;19.142;2023-12-04T05:31:01;25.43;;;10.00;;
9328;SDS011;4703;48.748;19.142;2023-12-04T05:33:29;17.27;;;9.67;;
9328;SDS011;4703;48.748;19.142;2023-12-04T05:35:56;13.10;;;8.33;;
9328;SDS011;4703;48.748;19.142;2023-12-04T05:38:23;14.70;;;7.83;;
9328;SDS011;4703;48.748;19.142;2023-12-04T05:40:50;14.07;;;8.47;;
9328;SDS011;4703;48.748;19.142;2023-12-04T05:43:17;14.50;;;9.17;;
9328;SDS011;4703;48.748;19.142;2023-12-04T05:45:45;16.50;;;8.00;;
9328;SDS011;4703;48.748;19.142;2023-12-04T05:48:16;12.77;;;8.37;;
9328;SDS011;4703;48.748;19.142;2023-12-04T05:50:43;15.57;;;8.43;;
9328;SDS011;4703;48.748;19.142;2023-12-04T05:53:11;17.43;;;10.90;;
9328;SDS011;4703;48.748;19.142;2023-12-04T05:55:38;15.67;;;7.77;;
9328;SDS011;4703;48.748;19.142;2023-12-04T05:58:05;12.83;;;7.33;;
9328;SDS011;4703;48.748;19.142;2023-12-04T06:00:33;19.07;;;8.90;;
9328;SDS011;4703;48.748;19.142;2023-12-04T06:03:00;14.53;;;8.40;;
9328;SDS011;4703;48.748;19.142;2023-12-04T06:05:27;12.83;;;7.23;;
9328;SDS011;4703;48.748;19.142;2023-12-04T06:07:54;13.00;;;7.30;;
9328;SDS011;4703;48.748;19.142;2023-12-04T06:10:24;16.30;;;9.83;;
9328;SDS011;4703;48.748;19.142;2023-12-04T06:12:51;14.57;;;8.83;;
9328;SDS011;4703;48.748;19.142;2023-12-04T06:15:19;17.47;;;10.83;;
9328;SDS011;4703;48.748;19.142;2023-12-04T06:17:46;11.83;;;7.77;;
9328;SDS011;4703;48.748;19.142;2023-12-04T06:20:13;10.60;;;5.90;;
9328;SDS011;4703;48.748;19.142;2023-12-04T06:22:40;16.40;;;7.77;;
9328;SDS011;4703;48.748;19.142;2023-12-04T06:25:08;22.30;;;9.50;;
9328;SDS011;4703;48.748;19.142;2023-12-04T06:27:35;15.17;;;7.80;;
9328;SDS011;4703;48.748;19.142;2023-12-04T06:30:05;20.83;;;9.63;;
9328;SDS011;4703;48.748;19.142;2023-12-04T06:32:33;11.23;;;7.43;;
9328;SDS011;4703;48.748;19.142;2023-12-04T06:35:00;16.03;;;9.10;;
9328;SDS011;4703;48.748;19.142;2023-12-04T06:37:29;18.17;;;10.20;;
9328;SDS011;4703;48.748;19.142;2023-12-04T06:39:58;26.50;;;10.60;;
9328;SDS011;4703;48.748;19.142;2023-12-04T06:42:28;16.10;;;8.37;;
9328;SDS011;4703;48.748;19.142;2023-12-04T06:44:56;18.10;;;7.60;;
9328;SDS011;4703;48.748;19.142;2023-12-04T06:47:23;9.23;;;7.30;;
9328;SDS011;4703;48.748;19.142;2023-12-04T06:49:51;17.37;;;8.00;;
9328;SDS011;4703;48.748;19.142;2023-12-04T06:52:18;10.77;;;6.50;;
9328;SDS011;4703;48.748;19.142;2023-12-04T06:54:46;13.10;;;6.97;;
9328;SDS011;4703;48.748;19.142;2023-12-04T06:57:13;13.00;;;6.20;;
9328;SDS011;4703;48.748;19.142;2023-12-04T06:59:44;10.30;;;6.90;;
9328;SDS011;4703;48.748;19.142;2023-12-04T07:02:10;12.63;;;6.23;;
9328;SDS011;4703;48.748;19.142;2023-12-04T07:04:38;8.20;;;5.33;;
9328;SDS011;4703;48.748;19.142;2023-12-04T07:07:06;13.43;;;6.23;;
9328;SDS011;4703;48.748;19.142;2023-12-04T07:09:33;9.43;;;5.03;;
9328;SDS011;4703;48.748;19.142;2023-12-04T07:12:01;13.50;;;7.27;;
9328;SDS011;4703;48.748;19.142;2023-12-04T07:14:29;13.93;;;7.70;;
9328;SDS011;4703;48.748;19.142;2023-12-04T07:16:56;11.50;;;6.30;;
9328;SDS011;4703;48.748;19.142;2023-12-04T07:19:24;13.50;;;7.63;;
9328;SDS011;4703;48.748;19.142;2023-12-04T07:21:53;27.53;;;8.17;;
9328;SDS011;4703;48.748;19.142;2023-12-04T07:24:20;13.13;;;5.83;;
9328;SDS011;4703;48.748;19.142;2023-12-04T07:26:47;11.80;;;5.97;;
9328;SDS011;4703;48.748;19.142;2023-12-04T07:29:15;9.10;;;6.43;;
9328;SDS011;4703;48.748;19.142;2023-12-04T07:31:42;16.17;;;8.17;;
9328;SDS011;4703;48.748;19.142;2023-12-04T07:34:09;11.87;;;7.30;;
9328;SDS011;4703;48.748;19.142;2023-12-04T07:36:37;17.90;;;8.97;;
9328;SDS011;4703;48.748;19.142;2023-12-04T07:39:04;14.53;;;8.80;;
9328;SDS011;4703;48.748;19.142;2023-12-04T07:41:33;21.00;;;10.63;;
9328;SDS011;4703;48.748;19.142;2023-12-04T07:44:00;12.20;;;7.00;;
9328;SDS011;4703;48.748;19.142;2023-12-04T07:46:27;9.70;;;6.67;;
9328;SDS011;4703;48.748;19.142;2023-12-04T07:48:55;13.97;;;7.90;;
9328;SDS011;4703;48.748;19.142;2023-12-04T07:51:23;11.90;;;7.47;;
9328;SDS011;4703;48.748;19.142;2023-12-04T07:53:50;19.30;;;9.47;;
9328;SDS011;4703;48.748;19.142;2023-12-04T07:56:17;11.87;;;7.07;;
9328;SDS011;4703;48.748;19.142;2023-12-04T07:58:45;11.80;;;6.40;;
9328;SDS011;4703;48.748;19.142;2023-12-04T08:01:13;15.13;;;8.27;;
9328;SDS011;4703;48.748;19.142;2023-12-04T08:03:41;21.87;;;9.63;;
9328;SDS011;4703;48.748;19.142;2023-12-04T08:06:08;12.27;;;7.57;;
9328;SDS011;4703;48.748;19.142;2023-12-04T08:08:37;11.50;;;7.90;;
9328;SDS011;4703;48.748;19.142;2023-12-04T08:11:04;19.03;;;9.70;;
9328;SDS011;4703;48.748;19.142;2023-12-04T08:13:31;21.50;;;10.97;;
9328;SDS011;4703;48.748;19.142;2023-12-04T08:15:58;14.10;;;8.80;;
9328;SDS011;4703;48.748;19.142;2023-12-04T08:18:27;14.43;;;9.57;;
9328;SDS011;4703;48.748;19.142;2023-12-04T08:20:54;15.73;;;8.87;;
9328;SDS011;4703;48.748;19.142;2023-12-04T08:23:22;13.13;;;8.20;;
9328;SDS011;4703;48.748;19.142;2023-12-04T08:25:49;19.17;;;8.23;;
9328;SDS011;4703;48.748;19.142;2023-12-04T08:28:16;17.60;;;9.53;;
9328;SDS011;4703;48.748;19.142;2023-12-04T08:30:43;7.80;;;6.30;;
9328;SDS011;4703;48.748;19.142;2023-12-04T08:33:10;9.27;;;6.37;;
9328;SDS011;4703;48.748;19.142;2023-12-04T08:35:37;10.30;;;7.07;;
9328;SDS011;4703;48.748;19.142;2023-12-04T08:38:04;14.60;;;8.77;;
9328;SDS011;4703;48.748;19.142;2023-12-04T08:40:32;12.10;;;7.03;;
9328;SDS011;4703;48.748;19.142;2023-12-04T08:42:59;13.60;;;7.60;;
9328;SDS011;4703;48.748;19.142;2023-12-04T08:45:26;14.50;;;7.83;;
9328;SDS011;4703;48.748;19.142;2023-12-04T08:47:53;11.13;;;7.10;;
9328;SDS011;4703;48.748;19.142;2023-12-04T08:50:20;11.43;;;7.27;;
9328;SDS011;4703;48.748;19.142;2023-12-04T08:52:48;12.60;;;8.20;;
9328;SDS011;4703;48.748;19.142;2023-12-04T08:55:15;13.53;;;8.43;;
9328;SDS011;4703;48.748;19.142;2023-12-04T08:57:42;15.27;;;9.57;;
9328;SDS011;4703;48.748;19.142;2023-12-04T09:00:09;17.20;;;9.77;;
9328;SDS011;4703;48.748;19.142;2023-12-04T09:02:36;16.90;;;10.13;;
9328;SDS011;4703;48.748;19.142;2023-12-04T09:05:14;16.57;;;9.97;;
9328;SDS011;4703;48.748;19.142;2023-12-04T09:07:42;16.67;;;9.93;;
9328;SDS011;4703;48.748;19.142;2023-12-04T09:10:12;20.80;;;11.70;;
9328;SDS011;4703;48.748;19.142;2023-12-04T09:13:00;12.37;;;9.50;;
9328;SDS011;4703;48.748;19.142;2023-12-04T09:15:27;17.50;;;11.30;;
9328;SDS011;4703;48.748;19.142;2023-12-04T09:17:54;14.73;;;8.97;;
9328;SDS011;4703;48.748;19.142;2023-12-04T09:20:21;16.93;;;10.60;;
9328;SDS011;4703;48.748;19.142;2023-12-04T09:22:49;17.10;;;9.63;;
9328;SDS011;4703;48.748;19.142;2023-12-04T09:25:22;15.30;;;9.10;;
9328;SDS011;4703;48.748;19.142;2023-12-04T09:27:50;22.97;;;10.37;;
9328;SDS011;4703;48.748;19.142;2023-12-04T09:30:17;13.87;;;9.60;;
9328;SDS011;4703;48.748;19.142;2023-12-04T09:32:44;16.40;;;9.80;;
9328;SDS011;4703;48.748;19.142;2023-12-04T09:35:11;14.27;;;10.30;;
9328;SDS011;4703;48.748;19.142;2023-12-04T09:37:39;13.50;;;8.97;;
9328;SDS011;4703;48.748;19.142;2023-12-04T09:40:06;15.87;;;10.33;;
9328;SDS011;4703;48.748;19.142;2023-12-04T09:42:34;17.93;;;10.40;;
9328;SDS011;4703;48.748;19.142;2023-12-04T09:45:02;19.80;;;12.03;;
9328;SDS011;4703;48.748;19.142;2023-12-04T09:47:30;17.03;;;10.30;;
9328;SDS011;4703;48.748;19.142;2023-12-04T09:50:00;13.10;;;8.90;;
9328;SDS011;4703;48.748;19.142;2023-12-04T09:52:27;16.00;;;9.50;;
9328;SDS011;4703;48.748;19.142;2023-12-04T09:54:54;15.97;;;9.87;;
9328;SDS011;4703;48.748;19.142;2023-12-04T09:57:21;15.40;;;10.17;;
9328;SDS011;4703;48.748;19.142;2023-12-04T09:59:51;12.37;;;9.00;;
9328;SDS011;4703;48.748;19.142;2023-12-04T10:02:19;14.37;;;9.13;;
9328;SDS011;4703;48.748;19.142;2023-12-04T10:04:48;23.20;;;14.57;;
9328;SDS011;4703;48.748;19.142;2023-12-04T10:07:15;17.20;;;11.53;;
9328;SDS011;4703;48.748;19.142;2023-12-04T10:09:42;18.70;;;11.53;;
9328;SDS011;4703;48.748;19.142;2023-12-04T10:12:09;12.63;;;8.33;;
9328;SDS011;4703;48.748;19.142;2023-12-04T10:14:37;20.70;;;12.17;;
9328;SDS011;4703;48.748;19.142;2023-12-04T10:17:14;16.47;;;9.83;;
9328;SDS011;4703;48.748;19.142;2023-12-04T10:19:44;13.13;;;9.50;;
9328;SDS011;4703;48.748;19.142;2023-12-04T10:22:12;16.60;;;9.13;;
9328;SDS011;4703;48.748;19.142;2023-12-04T10:24:40;15.93;;;9.70;;
9328;SDS011;4703;48.748;19.142;2023-12-04T10:27:08;12.57;;;8.63;;
9328;SDS011;4703;48.748;19.142;2023-12-04T10:32:18;12.43;;;8.07;;
9328;SDS011;4703;48.748;19.142;2023-12-04T10:34:48;20.80;;;10.43;;
9328;SDS011;4703;48.748;19.142;2023-12-04T10:37:15;11.73;;;8.70;;
9328;SDS011;4703;48.748;19.142;2023-12-04T10:39:47;16.43;;;10.27;;
9328;SDS011;4703;48.748;19.142;2023-12-04T10:42:23;14.43;;;9.10;;
9328;SDS011;4703;48.748;19.142;2023-12-04T10:44:55;13.47;;;8.97;;
9328;SDS011;4703;48.748;19.142;2023-12-04T10:47:23;13.57;;;8.93;;
9328;SDS011;4703;48.748;19.142;2023-12-04T10:49:50;12.13;;;9.17;;
9328;SDS011;4703;48.748;19.142;2023-12-04T10:52:19;12.87;;;8.67;;
9328;SDS011;4703;48.748;19.142;2023-12-04T10:54:49;15.50;;;8.60;;
9328;SDS011;4703;48.748;19.142;2023-12-04T10:57:20;10.10;;;7.80;;
9328;SDS011;4703;48.748;19.142;2023-12-04T10:59:57;13.10;;;8.03;;
9328;SDS011;4703;48.748;19.142;2023-12-04T11:02:30;15.13;;;9.13;;
9328;SDS011;4703;48.748;19.142;2023-12-04T11:05:07;11.00;;;7.10;;
9328;SDS011;4703;48.748;19.142;2023-12-04T11:07:44;12.80;;;8.47;;
9328;SDS011;4703;48.748;19.142;2023-12-04T11:10:41;12.60;;;9.03;;
9328;SDS011;4703;48.748;19.142;2023-12-04T11:13:29;11.93;;;8.80;;
9328;SDS011;4703;48.748;19.142;2023-12-04T11:16:06;14.27;;;8.90;;
9328;SDS011;4703;48.748;19.142;2023-12-04T11:21:34;17.87;;;8.27;;
9328;SDS011;4703;48.748;19.142;2023-12-04T11:24:02;15.60;;;8.37;;
9328;SDS011;4703;48.748;19.142;2023-12-04T11:26:30;9.73;;;6.97;;
9328;SDS011;4703;48.748;19.142;2023-12-04T11:28:58;13.00;;;8.20;;
9328;SDS011;4703;48.748;19.142;2023-12-04T11:31:26;9.70;;;7.70;;
9328;SDS011;4703;48.748;19.142;2023-12-04T11:33:53;10.80;;;7.10;;
9328;SDS011;4703;48.748;19.142;2023-12-04T11:36:28;10.07;;;7.67;;
9328;SDS011;4703;48.748;19.142;2023-12-04T11:38:55;13.40;;;7.70;;
9328;SDS011;4703;48.748;19.142;2023-12-04T11:41:25;8.50;;;6.87;;
9328;SDS011;4703;48.748;19.142;2023-12-04T11:43:56;7.87;;;6.50;;
9328;SDS011;4703;48.748;19.142;2023-12-04T11:46:25;11.30;;;7.80;;
9328;SDS011;4703;48.748;19.142;2023-12-04T11:48:54;14.00;;;8.37;;
9328;SDS011;4703;48.748;19.142;2023-12-04T11:54:09;11.00;;;6.90;;
9328;SDS011;4703;48.748;19.142;2023-12-04T11:56:40;9.30;;;7.57;;
9328;SDS011;4703;48.748;19.142;2023-12-04T11:59:23;9.80;;;7.53;;
9328;SDS011;4703;48.748;19.142;2023-12-04T12:01:50;14.00;;;8.80;;
9328;SDS011;4703;48.748;19.142;2023-12-04T12:04:22;9.43;;;5.90;;
9328;SDS011;4703;48.748;19.142;2023-12-04T12:06:50;9.83;;;7.83;;
9328;SDS011;4703;48.748;19.142;2023-12-04T12:09:17;10.83;;;6.73;;
9328;SDS011;4703;48.748;19.142;2023-12-04T12:11:45;7.47;;;6.07;;
9328;SDS011;4703;48.748;19.142;2023-12-04T12:14:12;7.33;;;6.47;;
9328;SDS011;4703;48.748;19.142;2023-12-04T12:16:39;11.00;;;7.00;;
9328;SDS011;4703;48.748;19.142;2023-12-04T12:19:07;11.27;;;8.03;;
9328;SDS011;4703;48.748;19.142;2023-12-04T12:21:34;14.50;;;8.73;;
9328;SDS011;4703;48.748;19.142;2023-12-04T12:24:03;14.27;;;9.30;;
9328;SDS011;4703;48.748;19.142;2023-12-04T12:26:33;9.00;;;8.10;;
9328;SDS011;4703;48.748;19.142;2023-12-04T12:29:00;9.70;;;7.20;;
9328;SDS011;4703;48.748;19.142;2023-12-04T12:31:27;7.77;;;6.97;;
9328;SDS011;4703;48.748;19.142;2023-12-04T12:33:55;11.90;;;7.30;;
9328;SDS011;4703;48.748;19.142;2023-12-04T12:36:24;9.93;;;7.23;;
9328;SDS011;4703;48.748;19.142;2023-12-04T12:38:51;8.07;;;6.00;;
9328;SDS011;4703;48.748;19.142;2023-12-04T12:41:18;7.53;;;5.73;;
9328;SDS011;4703;48.748;19.142;2023-12-04T12:43:46;8.70;;;6.37;;
9328;SDS011;4703;48.748;19.142;2023-12-04T12:46:18;6.17;;;5.50;;
9328;SDS011;4703;48.748;19.142;2023-12-04T12:48:46;8.13;;;6.40;;
9328;SDS011;4703;48.748;19.142;2023-12-04T12:51:13;19.70;;;9.60;;
9328;SDS011;4703;48.748;19.142;2023-12-04T12:53:41;10.53;;;7.10;;
9328;SDS011;4703;48.748;19.142;2023-12-04T12:56:17;9.00;;;7.10;;
9328;SDS011;4703;48.748;19.142;2023-12-04T12:58:44;11.80;;;7.63;;
9328;SDS011;4703;48.748;19.142;2023-12-04T13:01:11;9.43;;;6.90;;
9328;SDS011;4703;48.748;19.142;2023-12-04T13:03:39;10.00;;;7.30;;
9328;SDS011;4703;48.748;19.142;2023-12-04T13:06:06;9.70;;;7.30;;
9328;SDS011;4703;48.748;19.142;2023-12-04T13:08:34;10.73;;;7.60;;
9328;SDS011;4703;48.748;19.142;2023-12-04T13:11:01;11.23;;;7.20;;
9328;SDS011;4703;48.748;19.142;2023-12-04T13:13:28;8.73;;;7.30;;
9328;SDS011;4703;48.748;19.142;2023-12-04T13:15:56;12.77;;;7.87;;
9328;SDS011;4703;48.748;19.142;2023-12-04T13:18:23;8.40;;;6.40;;
9328;SDS011;4703;48.748;19.142;2023-12-04T13:20:50;10.90;;;7.90;;
9328;SDS011;4703;48.748;19.142;2023-12-04T13:23:17;7.90;;;7.03;;
9328;SDS011;4703;48.748;19.142;2023-12-04T13:25:44;13.50;;;8.00;;
9328;SDS011;4703;48.748;19.142;2023-12-04T13:28:11;11.13;;;7.70;;
9328;SDS011;4703;48.748;19.142;2023-12-04T13:30:53;11.20;;;8.43;;
9328;SDS011;4703;48.748;19.142;2023-12-04T13:33:21;16.30;;;10.00;;
9328;SDS011;4703;48.748;19.142;2023-12-04T13:35:48;12.27;;;8.50;;
9328;SDS011;4703;48.748;19.142;2023-12-04T13:38:15;9.63;;;8.07;;
9328;SDS011;4703;48.748;19.142;2023-12-04T13:40:51;11.10;;;8.27;;
9328;SDS011;4703;48.748;19.142;2023-12-04T13:43:26;13.10;;;8.63;;
9328;SDS011;4703;48.748;19.142;2023-12-04T13:46:12;7.83;;;7.03;;
9328;SDS011;4703;48.748;19.142;2023-12-04T13:48:39;11.27;;;7.73;;
9328;SDS011;4703;48.748;19.142;2023-12-04T13:51:09;10.13;;;7.93;;
9328;SDS011;4703;48.748;19.142;2023-12-04T13:53:37;10.70;;;7.50;;
9328;SDS011;4703;48.748;19.142;2023-12-04T13:56:12;9.90;;;7.40;;
9328;SDS011;4703;48.748;19.142;2023-12-04T13:58:55;9.50;;;6.93;;
9328;SDS011;4703;48.748;19.142;2023-12-04T14:01:23;9.97;;;7.57;;
9328;SDS011;4703;48.748;19.142;2023-12-04T14:03:55;10.30;;;7.17;;
9328;SDS011;4703;48.748;19.142;2023-12-04T14:06:28;7.60;;;6.77;;
9328;SDS011;4703;48.748;19.142;2023-12-04T14:08:56;15.23;;;8.50;;
9328;SDS011;4703;48.748;19.142;2023-12-04T14:11:25;10.40;;;7.37;;
9328;SDS011;4703;48.748;19.142;2023-12-04T14:13:52;10.13;;;8.60;;
9328;SDS011;4703;48.748;19.142;2023-12-04T14:16:19;9.10;;;6.47;;
9328;SDS011;4703;48.748;19.142;2023-12-04T14:18:46;10.23;;;7.43;;
9328;SDS011;4703;48.748;19.142;2023-12-04T14:21:13;10.87;;;6.03;;
9328;SDS011;4703;48.748;19.142;2023-12-04T14:23:40;11.20;;;8.10;;
9328;SDS011;4703;48.748;19.142;2023-12-04T14:26:07;13.33;;;8.47;;
9328;SDS011;4703;48.748;19.142;2023-12-04T14:28:34;13.73;;;9.53;;
9328;SDS011;4703;48.748;19.142;2023-12-04T14:31:08;17.50;;;10.97;;
9328;SDS011;4703;48.748;19.142;2023-12-04T14:33:36;15.80;;;11.37;;
9328;SDS011;4703;48.748;19.142;2023-12-04T14:36:08;15.67;;;10.70;;
9328;SDS011;4703;48.748;19.142;2023-12-04T14:38:39;17.77;;;12.07;;
9328;SDS011;4703;48.748;19.142;2023-12-04T14:41:06;24.83;;;15.87;;
9328;SDS011;4703;48.748;19.142;2023-12-04T14:43:36;29.97;;;19.80;;
9328;SDS011;4703;48.748;19.142;2023-12-04T14:46:04;36.63;;;22.40;;
9328;SDS011;4703;48.748;19.142;2023-12-04T14:48:35;45.90;;;24.97;;
9328;SDS011;4703;48.748;19.142;2023-12-04T14:51:07;32.70;;;19.43;;
9328;SDS011;4703;48.748;19.142;2023-12-04T14:53:37;20.50;;;15.30;;
9328;SDS011;4703;48.748;19.142;2023-12-04T14:56:29;20.60;;;15.10;;
9328;SDS011;4703;48.748;19.142;2023-12-04T14:59:02;20.10;;;13.97;;
9328;SDS011;4703;48.748;19.142;2023-12-04T15:01:32;24.17;;;14.37;;